Surface weather observations from New York State from the past hour:

KALB 160851Z 20004KT 10SM FEW035 FEW090 M08/M11 A2985 RMK AO2 SLP113 60000
 T10831106 53006=
KART 160856Z AUTO 28016G29KT 5SM HZ SCT060 OVC090 M03/M07 A2977 RMK AO2 PK WND
 28029/0851 SLP089 T10281067 51014 $=
KBGM 160853Z AUTO 28006KT 7SM -SN SCT022 BKN027 OVC045 M07/M09 A2981 RMK AO2
 SNE36B52 SLP121 P0000 60000 T10671094 53016=
KBNL 160855Z AUTO 00000KT 10SM M00/M03 A3022 RMK AO2=
KBUF 160854Z 27017KT 10SM FEW050 BKN095 M05/M10 A2988 RMK AO2 SLP129 T10501100
 51016=
KDKK 160853Z AUTO 26009KT 1SM -SN BR FEW006 BKN014 OVC024 M03/M04 A2990 RMK AO2
 PK WND 26028/0817 SNB31 SLP136 P0000 60000 T10331044 53008 $=
KDSV 160854Z AUTO VRB03KT 10SM BKN040 OVC050 M04/M09 A2987 RMK AO2 SLP132 60000
 T10391094 51012=
KELM 160853Z AUTO 24007KT 7SM -SN BKN035 OVC048 M03/M07 A2987 RMK AO2 SLP126
 P0000 60000 T10331072 51018=
KELZ 160856Z AUTO 25008G17KT 1 1/4SM -SN OVC022 M06/M09 A2981 RMK AO2 SLP125
 P0000 60000 T10561089 50015=
KFOK 160853Z AUTO 00000KT 5SM BR CLR M11/M12 A2993 RMK AO2 SLP137 I1000 I3000
 T11061117 51016=
KFRG 160853Z AUTO 29009KT 10SM CLR M04/M08 A2995 RMK AO2 SLP143 T10391083 53015=
KFZY 160854Z AUTO 23016G25KT 10SM FEW039 FEW070 M04/M11 A2981 RMK AO2 PK WND
 24027/0815 SLP102 T10441111 51017=
KGFL 160853Z AUTO 00000KT 7SM BKN007 OVC100 M13/M14 A2982 RMK AO2 SLP110
 T11331144 53000=
KGTB 160856Z 25004KT 10SM -SN FEW032 SCT085 M05/M08 A2974 RMK AO2A SNB46 SLP082
 P0000 60000 T10541083 51012 $=
KHPN 160856Z 27005KT 8SM CLR M06/M09 A2990 RMK AO2 SLP137 T10611089 51015=
KHTO 160855Z AUTO 29011G17KT 10SM CLR M03/M07 A2990 RMK AO2 T10271073=
KHWV 160856Z AUTO 27007KT 9SM CLR M07/M08 A2994 RMK AO2 SLP139 T10671083 51016=
KIAG 160853Z AUTO 26017G23KT 10SM OVC100 M04/M11 A2988 RMK AO2 PK WND
 27027/0803 SLP133 T10391106 51017 $=
KISP 160856Z AUTO 28006KT 9SM CLR M07/M09 A2993 RMK AO2 SLP137 I3000 T10721089
 51015=
KITH 160856Z AUTO 26009KT 10SM OVC036 M05/M09 A2985 RMK AO2 SNE38 SLP123 P0000
 60000 T10501089 51015=
KJFK 160851Z 27015G22KT 10SM SCT250 M03/M08 A2998 RMK AO2 SLP152 T10331078
 53018 $=
KJHW 160856Z AUTO 23011KT 1 3/4SM -SN BR OVC011 M06/M07 A2985 RMK AO2 SLP139
 P0000 60000 T10611072 50008 FZRANO=
KLGA 160851Z 27018G24KT 10SM FEW250 M03/M08 A2996 RMK AO2 PK WND 28026/0757
 SLP143 T10281083 51017 $=
KMGJ 160854Z AUTO 21006KT 8SM CLR M10/M12 A2990 RMK AO2 SLP130 60000 I1000
 I3000 T11001117 51012=
KMSS 160853Z AUTO 23006KT 10SM BKN018 OVC100 M06/M07 A2976 RMK AO2 SNE0754
 SLP086 P0000 60000 T10561072 51010=
KMSV 160856Z AUTO 27009KT 9SM -SN BKN060 M08/M10 A2984 RMK AO2 SLP130 P0000
 60000 T10831100 51013 FZRANO=
KMTP 160854Z AUTO 28012G21KT M01/M06 A2990 RMK AO1 PK WND 28026/0801 SLP124
 T10061056 51021=
KNYC 160851Z AUTO VRB03KT 9SM CLR M04/M08 A2997 RMK AO2 SLP142 T10391083 52017
 $=
KOGS 160855Z AUTO 18004KT 10SM BKN036 BKN047 M06/M07 A2974 RMK AO2 T10611071=
KOLE 160855Z AUTO 25007KT 210V290 3/4SM SN OVC009 M07/M08 A2979 RMK AO2=
KPBG 160853Z AUTO 19004KT 10SM BKN034 OVC055 M07/M11 A2977 RMK AO2 SNB21E32
 SLP084 P0000 60000 T10671111 56003 TSNO=
KPEO 160853Z AUTO 24009KT 10SM SCT040 SCT095 M04/M11 A2984 RMK AO2 SLP120 60000
 T10441111 50014=
KPOU 160853Z AUTO 21004KT 9SM FEW075 M07/M10 A2991 RMK AO2 SLP128 T10671100
 51012=
KRME 160853Z AUTO 27009KT 10SM SCT070 M05/M11 A2983 RMK AO2 SLP105 60000
 T10501111 53011=
KROC 160854Z 27013KT 10SM CLR M05/M11 A2986 RMK AO2 SLP123 T10501111 52015=
KSLK 160851Z AUTO 2 1/2SM -SN BR OVC016 M09/M10 A2965 RMK AO2 SNB24 SLP070
 P0000 60000 T10891100 53005 $=
KSYR 160854Z 23016KT 10SM SCT060 SCT080 M05/M11 A2984 RMK AO2 PK WND 24026/0810
 SLP106 T10501111 51020 $=

Return to: Albany Weather Page

Return to: Department of Atmospheric and Environmental Sciences Homepage


Comments to daesweb@albany.edu